sensor_id;sensor_type;location;lat;lon;timestamp;temperature;humidity
7622;DHT22;3852;52.284;8.032;2022-08-19T00:00:34;18.80;99.90
7622;DHT22;3852;52.284;8.032;2022-08-19T00:03:01;18.80;99.90
7622;DHT22;3852;52.284;8.032;2022-08-19T00:05:28;18.80;99.90
7622;DHT22;3852;52.284;8.032;2022-08-19T00:07:57;19.00;99.90
7622;DHT22;3852;52.284;8.032;2022-08-19T00:10:23;18.90;99.90
7622;DHT22;3852;52.284;8.032;2022-08-19T00:12:50;18.90;99.90
7622;DHT22;3852;52.284;8.032;2022-08-19T00:15:18;18.80;99.90
7622;DHT22;3852;52.284;8.032;2022-08-19T00:17:46;18.70;99.90
7622;DHT22;3852;52.284;8.032;2022-08-19T00:20:14;18.70;99.90
7622;DHT22;3852;52.284;8.032;2022-08-19T00:22:43;18.70;99.90
7622;DHT22;3852;52.284;8.032;2022-08-19T00:25:10;18.60;99.90
7622;DHT22;3852;52.284;8.032;2022-08-19T00:27:36;18.60;99.90
7622;DHT22;3852;52.284;8.032;2022-08-19T00:30:05;18.50;99.90
7622;DHT22;3852;52.284;8.032;2022-08-19T00:32:31;18.60;99.90
7622;DHT22;3852;52.284;8.032;2022-08-19T00:34:59;18.50;99.90
7622;DHT22;3852;52.284;8.032;2022-08-19T00:37:26;18.50;99.90
7622;DHT22;3852;52.284;8.032;2022-08-19T00:39:52;18.40;99.90
7622;DHT22;3852;52.284;8.032;2022-08-19T00:42:20;18.40;99.90
7622;DHT22;3852;52.284;8.032;2022-08-19T00:44:46;18.40;99.90
7622;DHT22;3852;52.284;8.032;2022-08-19T00:47:15;18.40;99.90
7622;DHT22;3852;52.284;8.032;2022-08-19T00:49:45;18.40;99.90
7622;DHT22;3852;52.284;8.032;2022-08-19T00:52:26;18.50;99.90
7622;DHT22;3852;52.284;8.032;2022-08-19T00:54:57;18.40;99.90
7622;DHT22;3852;52.284;8.032;2022-08-19T00:57:34;18.40;99.90
7622;DHT22;3852;52.284;8.032;2022-08-19T01:00:03;18.40;99.90
7622;DHT22;3852;52.284;8.032;2022-08-19T01:02:32;18.30;99.90
7622;DHT22;3852;52.284;8.032;2022-08-19T01:05:00;18.30;99.90
7622;DHT22;3852;52.284;8.032;2022-08-19T01:07:30;18.30;99.90
7622;DHT22;3852;52.284;8.032;2022-08-19T01:09:56;18.20;99.90
7622;DHT22;3852;52.284;8.032;2022-08-19T01:12:22;18.20;99.90
7622;DHT22;3852;52.284;8.032;2022-08-19T01:14:49;18.20;99.90
7622;DHT22;3852;52.284;8.032;2022-08-19T01:17:16;18.20;99.90
7622;DHT22;3852;52.284;8.032;2022-08-19T01:19:43;18.10;99.90
7622;DHT22;3852;52.284;8.032;2022-08-19T01:24:50;18.10;99.90
7622;DHT22;3852;52.284;8.032;2022-08-19T01:27:19;18.10;99.90
7622;DHT22;3852;52.284;8.032;2022-08-19T01:29:45;18.00;99.90
7622;DHT22;3852;52.284;8.032;2022-08-19T01:32:14;18.00;99.90
7622;DHT22;3852;52.284;8.032;2022-08-19T01:34:42;18.00;99.90
7622;DHT22;3852;52.284;8.032;2022-08-19T01:37:13;17.90;99.90
7622;DHT22;3852;52.284;8.032;2022-08-19T01:39:41;18.00;99.90
7622;DHT22;3852;52.284;8.032;2022-08-19T01:42:08;17.90;99.90
7622;DHT22;3852;52.284;8.032;2022-08-19T01:44:35;17.90;99.90
7622;DHT22;3852;52.284;8.032;2022-08-19T01:47:02;17.80;99.90
7622;DHT22;3852;52.284;8.032;2022-08-19T01:49:31;17.80;99.90
7622;DHT22;3852;52.284;8.032;2022-08-19T01:52:00;17.80;99.90
7622;DHT22;3852;52.284;8.032;2022-08-19T01:54:26;17.80;99.90
7622;DHT22;3852;52.284;8.032;2022-08-19T01:56:59;17.70;99.90
7622;DHT22;3852;52.284;8.032;2022-08-19T01:59:27;17.70;99.90
7622;DHT22;3852;52.284;8.032;2022-08-19T02:01:53;17.70;99.90
7622;DHT22;3852;52.284;8.032;2022-08-19T02:04:19;17.70;99.90
7622;DHT22;3852;52.284;8.032;2022-08-19T02:06:46;17.70;99.90
7622;DHT22;3852;52.284;8.032;2022-08-19T02:09:14;17.60;99.90
7622;DHT22;3852;52.284;8.032;2022-08-19T02:11:41;17.50;99.90
7622;DHT22;3852;52.284;8.032;2022-08-19T02:14:08;17.50;99.90
7622;DHT22;3852;52.284;8.032;2022-08-19T02:16:35;17.60;99.90
7622;DHT22;3852;52.284;8.032;2022-08-19T02:19:05;17.60;99.90
7622;DHT22;3852;52.284;8.032;2022-08-19T02:21:31;17.50;99.90
7622;DHT22;3852;52.284;8.032;2022-08-19T02:23:58;17.50;99.90
7622;DHT22;3852;52.284;8.032;2022-08-19T02:26:25;17.40;99.90
7622;DHT22;3852;52.284;8.032;2022-08-19T02:28:54;17.40;99.90
7622;DHT22;3852;52.284;8.032;2022-08-19T02:31:23;17.40;99.90
7622;DHT22;3852;52.284;8.032;2022-08-19T02:33:50;17.40;99.90
7622;DHT22;3852;52.284;8.032;2022-08-19T02:36:17;17.30;99.90
7622;DHT22;3852;52.284;8.032;2022-08-19T02:38:44;17.20;99.90
7622;DHT22;3852;52.284;8.032;2022-08-19T02:41:16;17.20;99.90
7622;DHT22;3852;52.284;8.032;2022-08-19T02:43:44;17.30;99.90
7622;DHT22;3852;52.284;8.032;2022-08-19T02:46:14;17.30;99.90
7622;DHT22;3852;52.284;8.032;2022-08-19T02:48:43;17.30;99.90
7622;DHT22;3852;52.284;8.032;2022-08-19T02:51:16;17.20;99.90
7622;DHT22;3852;52.284;8.032;2022-08-19T02:53:43;17.20;99.90
7622;DHT22;3852;52.284;8.032;2022-08-19T02:56:09;17.20;99.90
7622;DHT22;3852;52.284;8.032;2022-08-19T02:58:34;17.20;99.90
7622;DHT22;3852;52.284;8.032;2022-08-19T03:01:00;17.20;99.90
7622;DHT22;3852;52.284;8.032;2022-08-19T03:03:26;17.20;99.90
7622;DHT22;3852;52.284;8.032;2022-08-19T03:06:06;17.20;99.90
7622;DHT22;3852;52.284;8.032;2022-08-19T03:08:42;17.20;99.90
7622;DHT22;3852;52.284;8.032;2022-08-19T03:11:17;17.20;99.90
7622;DHT22;3852;52.284;8.032;2022-08-19T03:13:45;17.20;99.90
7622;DHT22;3852;52.284;8.032;2022-08-19T03:16:12;17.20;99.90
7622;DHT22;3852;52.284;8.032;2022-08-19T03:18:38;17.20;99.90
7622;DHT22;3852;52.284;8.032;2022-08-19T03:21:05;17.10;99.90
7622;DHT22;3852;52.284;8.032;2022-08-19T03:23:31;17.20;99.90
7622;DHT22;3852;52.284;8.032;2022-08-19T03:25:57;17.10;99.90
7622;DHT22;3852;52.284;8.032;2022-08-19T03:28:23;17.20;99.90
7622;DHT22;3852;52.284;8.032;2022-08-19T03:31:00;17.10;99.90
7622;DHT22;3852;52.284;8.032;2022-08-19T03:33:29;17.10;99.90
7622;DHT22;3852;52.284;8.032;2022-08-19T03:36:23;17.00;99.90
7622;DHT22;3852;52.284;8.032;2022-08-19T03:38:57;17.00;99.90
7622;DHT22;3852;52.284;8.032;2022-08-19T03:41:30;17.00;99.90
7622;DHT22;3852;52.284;8.032;2022-08-19T03:44:00;17.00;99.90
7622;DHT22;3852;52.284;8.032;2022-08-19T03:46:30;17.00;99.90
7622;DHT22;3852;52.284;8.032;2022-08-19T03:48:59;17.00;99.90
7622;DHT22;3852;52.284;8.032;2022-08-19T03:51:28;17.10;99.90
7622;DHT22;3852;52.284;8.032;2022-08-19T03:53:58;17.00;99.90
7622;DHT22;3852;52.284;8.032;2022-08-19T03:56:26;17.00;99.90
7622;DHT22;3852;52.284;8.032;2022-08-19T03:58:56;17.10;99.90
7622;DHT22;3852;52.284;8.032;2022-08-19T04:01:26;17.10;99.90
7622;DHT22;3852;52.284;8.032;2022-08-19T04:03:53;17.10;99.90
7622;DHT22;3852;52.284;8.032;2022-08-19T04:06:24;17.10;99.90
7622;DHT22;3852;52.284;8.032;2022-08-19T04:08:59;17.10;99.90
7622;DHT22;3852;52.284;8.032;2022-08-19T04:11:35;17.00;99.90
7622;DHT22;3852;52.284;8.032;2022-08-19T04:14:08;17.00;99.90
7622;DHT22;3852;52.284;8.032;2022-08-19T04:16:36;16.90;99.90
7622;DHT22;3852;52.284;8.032;2022-08-19T04:19:03;16.90;99.90
7622;DHT22;3852;52.284;8.032;2022-08-19T04:21:30;16.90;99.90
7622;DHT22;3852;52.284;8.032;2022-08-19T04:23:57;16.90;99.90
7622;DHT22;3852;52.284;8.032;2022-08-19T04:26:29;16.80;99.90
7622;DHT22;3852;52.284;8.032;2022-08-19T04:28:58;16.80;99.90
7622;DHT22;3852;52.284;8.032;2022-08-19T04:31:32;16.80;99.90
7622;DHT22;3852;52.284;8.032;2022-08-19T04:34:03;16.80;99.90
7622;DHT22;3852;52.284;8.032;2022-08-19T04:36:34;16.80;99.90
7622;DHT22;3852;52.284;8.032;2022-08-19T04:39:05;16.80;99.90
7622;DHT22;3852;52.284;8.032;2022-08-19T04:41:36;16.70;99.90
7622;DHT22;3852;52.284;8.032;2022-08-19T04:44:20;16.70;99.90
7622;DHT22;3852;52.284;8.032;2022-08-19T04:46:48;16.70;99.90
7622;DHT22;3852;52.284;8.032;2022-08-19T04:49:16;16.80;99.90
7622;DHT22;3852;52.284;8.032;2022-08-19T04:51:45;16.80;99.90
7622;DHT22;3852;52.284;8.032;2022-08-19T04:54:14;16.80;99.90
7622;DHT22;3852;52.284;8.032;2022-08-19T04:56:40;16.90;99.90
7622;DHT22;3852;52.284;8.032;2022-08-19T04:59:07;16.90;99.90
7622;DHT22;3852;52.284;8.032;2022-08-19T05:01:34;17.00;99.90
7622;DHT22;3852;52.284;8.032;2022-08-19T05:04:04;17.00;99.90
7622;DHT22;3852;52.284;8.032;2022-08-19T05:06:33;17.00;99.90
7622;DHT22;3852;52.284;8.032;2022-08-19T05:09:01;17.00;99.90
7622;DHT22;3852;52.284;8.032;2022-08-19T05:11:36;17.10;99.90
7622;DHT22;3852;52.284;8.032;2022-08-19T05:14:06;17.10;99.90
7622;DHT22;3852;52.284;8.032;2022-08-19T05:16:32;17.10;99.90
7622;DHT22;3852;52.284;8.032;2022-08-19T05:18:58;17.10;99.90
7622;DHT22;3852;52.284;8.032;2022-08-19T05:21:43;17.10;99.90
7622;DHT22;3852;52.284;8.032;2022-08-19T05:24:28;17.10;99.90
7622;DHT22;3852;52.284;8.032;2022-08-19T05:26:55;17.20;99.90
7622;DHT22;3852;52.284;8.032;2022-08-19T05:29:26;17.20;99.90
7622;DHT22;3852;52.284;8.032;2022-08-19T05:31:53;17.20;99.90
7622;DHT22;3852;52.284;8.032;2022-08-19T05:34:22;17.30;99.90
7622;DHT22;3852;52.284;8.032;2022-08-19T05:36:52;17.20;99.90
7622;DHT22;3852;52.284;8.032;2022-08-19T05:39:22;17.30;99.90
7622;DHT22;3852;52.284;8.032;2022-08-19T05:41:56;17.30;99.90
7622;DHT22;3852;52.284;8.032;2022-08-19T05:44:29;17.40;99.90
7622;DHT22;3852;52.284;8.032;2022-08-19T05:47:00;17.40;99.90
7622;DHT22;3852;52.284;8.032;2022-08-19T05:49:28;17.40;99.90
7622;DHT22;3852;52.284;8.032;2022-08-19T05:51:55;17.40;99.90
7622;DHT22;3852;52.284;8.032;2022-08-19T05:54:21;17.40;99.90
7622;DHT22;3852;52.284;8.032;2022-08-19T05:56:49;17.40;99.90
7622;DHT22;3852;52.284;8.032;2022-08-19T05:59:16;17.50;99.90
7622;DHT22;3852;52.284;8.032;2022-08-19T06:01:45;17.60;99.90
7622;DHT22;3852;52.284;8.032;2022-08-19T06:04:12;17.70;99.90
7622;DHT22;3852;52.284;8.032;2022-08-19T06:06:42;17.90;99.90
7622;DHT22;3852;52.284;8.032;2022-08-19T06:09:08;18.00;99.90
7622;DHT22;3852;52.284;8.032;2022-08-19T06:11:41;18.00;99.90
7622;DHT22;3852;52.284;8.032;2022-08-19T06:14:20;18.10;99.90
7622;DHT22;3852;52.284;8.032;2022-08-19T06:16:48;18.20;99.90
7622;DHT22;3852;52.284;8.032;2022-08-19T06:19:18;18.30;99.90
7622;DHT22;3852;52.284;8.032;2022-08-19T06:21:46;18.40;99.90
7622;DHT22;3852;52.284;8.032;2022-08-19T06:24:16;18.40;99.90
7622;DHT22;3852;52.284;8.032;2022-08-19T06:26:46;18.50;99.90
7622;DHT22;3852;52.284;8.032;2022-08-19T06:29:15;18.60;99.90
7622;DHT22;3852;52.284;8.032;2022-08-19T06:31:43;18.80;99.90
7622;DHT22;3852;52.284;8.032;2022-08-19T06:34:11;18.90;99.90
7622;DHT22;3852;52.284;8.032;2022-08-19T06:36:40;19.00;99.90
7622;DHT22;3852;52.284;8.032;2022-08-19T06:39:23;19.10;99.90
7622;DHT22;3852;52.284;8.032;2022-08-19T06:41:53;19.20;99.90
7622;DHT22;3852;52.284;8.032;2022-08-19T06:44:23;19.20;99.90
7622;DHT22;3852;52.284;8.032;2022-08-19T06:46:52;19.30;99.90
7622;DHT22;3852;52.284;8.032;2022-08-19T06:49:18;19.50;99.90
7622;DHT22;3852;52.284;8.032;2022-08-19T06:51:46;19.60;99.90
7622;DHT22;3852;52.284;8.032;2022-08-19T06:54:14;19.70;99.90
7622;DHT22;3852;52.284;8.032;2022-08-19T06:56:41;19.70;99.90
7622;DHT22;3852;52.284;8.032;2022-08-19T06:59:15;19.80;99.90
7622;DHT22;3852;52.284;8.032;2022-08-19T07:01:49;19.80;99.90
7622;DHT22;3852;52.284;8.032;2022-08-19T07:04:17;19.80;99.90
7622;DHT22;3852;52.284;8.032;2022-08-19T07:06:45;19.90;99.90
7622;DHT22;3852;52.284;8.032;2022-08-19T07:09:13;20.10;99.90
7622;DHT22;3852;52.284;8.032;2022-08-19T07:11:45;20.10;99.90
7622;DHT22;3852;52.284;8.032;2022-08-19T07:14:12;20.20;99.90
7622;DHT22;3852;52.284;8.032;2022-08-19T07:16:43;20.30;99.90
7622;DHT22;3852;52.284;8.032;2022-08-19T07:19:11;20.40;99.90
7622;DHT22;3852;52.284;8.032;2022-08-19T07:21:37;20.50;99.90
7622;DHT22;3852;52.284;8.032;2022-08-19T07:24:03;20.60;99.90
7622;DHT22;3852;52.284;8.032;2022-08-19T07:26:32;20.70;99.90
7622;DHT22;3852;52.284;8.032;2022-08-19T07:28:59;20.80;99.90
7622;DHT22;3852;52.284;8.032;2022-08-19T07:31:27;21.00;99.90
7622;DHT22;3852;52.284;8.032;2022-08-19T07:33:55;21.10;99.90
7622;DHT22;3852;52.284;8.032;2022-08-19T07:36:24;21.20;99.90
7622;DHT22;3852;52.284;8.032;2022-08-19T07:38:56;21.20;99.90
7622;DHT22;3852;52.284;8.032;2022-08-19T07:41:25;21.30;99.90
7622;DHT22;3852;52.284;8.032;2022-08-19T07:43:54;21.50;99.90
7622;DHT22;3852;52.284;8.032;2022-08-19T07:46:20;21.50;99.90
7622;DHT22;3852;52.284;8.032;2022-08-19T07:48:48;21.60;99.90
7622;DHT22;3852;52.284;8.032;2022-08-19T07:51:20;21.70;99.90
7622;DHT22;3852;52.284;8.032;2022-08-19T07:53:48;21.60;99.90
7622;DHT22;3852;52.284;8.032;2022-08-19T07:56:17;21.70;99.90
7622;DHT22;3852;52.284;8.032;2022-08-19T07:58:47;21.80;99.90
7622;DHT22;3852;52.284;8.032;2022-08-19T08:01:23;22.00;99.90
7622;DHT22;3852;52.284;8.032;2022-08-19T08:03:52;22.10;99.90
7622;DHT22;3852;52.284;8.032;2022-08-19T08:06:37;22.20;99.90
7622;DHT22;3852;52.284;8.032;2022-08-19T08:09:32;22.30;99.90
7622;DHT22;3852;52.284;8.032;2022-08-19T08:12:02;22.20;99.90
7622;DHT22;3852;52.284;8.032;2022-08-19T08:14:37;22.30;99.90
7622;DHT22;3852;52.284;8.032;2022-08-19T08:17:06;22.40;99.90
7622;DHT22;3852;52.284;8.032;2022-08-19T08:19:33;22.40;99.90
7622;DHT22;3852;52.284;8.032;2022-08-19T08:22:01;22.50;99.90
7622;DHT22;3852;52.284;8.032;2022-08-19T08:24:29;22.60;99.90
7622;DHT22;3852;52.284;8.032;2022-08-19T08:26:58;22.80;99.90
7622;DHT22;3852;52.284;8.032;2022-08-19T08:29:27;23.00;99.90
7622;DHT22;3852;52.284;8.032;2022-08-19T08:31:55;23.00;99.90
7622;DHT22;3852;52.284;8.032;2022-08-19T08:34:21;23.10;99.90
7622;DHT22;3852;52.284;8.032;2022-08-19T08:36:47;23.10;99.90
7622;DHT22;3852;52.284;8.032;2022-08-19T08:39:16;23.30;99.90
7622;DHT22;3852;52.284;8.032;2022-08-19T08:44:59;23.30;99.90
7622;DHT22;3852;52.284;8.032;2022-08-19T08:47:38;23.50;99.90
7622;DHT22;3852;52.284;8.032;2022-08-19T08:50:16;23.50;99.90
7622;DHT22;3852;52.284;8.032;2022-08-19T08:53:10;23.60;99.90
7622;DHT22;3852;52.284;8.032;2022-08-19T08:55:37;23.60;99.90
7622;DHT22;3852;52.284;8.032;2022-08-19T08:58:12;23.60;99.90
7622;DHT22;3852;52.284;8.032;2022-08-19T09:00:44;23.80;99.90
7622;DHT22;3852;52.284;8.032;2022-08-19T09:03:26;23.90;99.90
7622;DHT22;3852;52.284;8.032;2022-08-19T09:06:01;24.00;99.90
7622;DHT22;3852;52.284;8.032;2022-08-19T09:11:04;23.90;99.90
7622;DHT22;3852;52.284;8.032;2022-08-19T09:13:50;23.80;99.90
7622;DHT22;3852;52.284;8.032;2022-08-19T09:16:20;23.80;99.90
7622;DHT22;3852;52.284;8.032;2022-08-19T09:18:55;23.90;99.90
7622;DHT22;3852;52.284;8.032;2022-08-19T09:21:24;23.90;99.90
7622;DHT22;3852;52.284;8.032;2022-08-19T09:23:51;23.90;99.90
7622;DHT22;3852;52.284;8.032;2022-08-19T09:26:19;24.10;99.90
7622;DHT22;3852;52.284;8.032;2022-08-19T09:28:47;24.10;99.90
7622;DHT22;3852;52.284;8.032;2022-08-19T09:31:17;24.10;99.90
7622;DHT22;3852;52.284;8.032;2022-08-19T09:33:46;24.30;99.90
7622;DHT22;3852;52.284;8.032;2022-08-19T09:36:14;24.30;99.90
7622;DHT22;3852;52.284;8.032;2022-08-19T09:38:42;24.30;99.90
7622;DHT22;3852;52.284;8.032;2022-08-19T09:41:10;24.30;99.90
7622;DHT22;3852;52.284;8.032;2022-08-19T09:43:41;24.20;99.90
7622;DHT22;3852;52.284;8.032;2022-08-19T09:46:09;24.20;99.90
7622;DHT22;3852;52.284;8.032;2022-08-19T09:48:36;24.30;99.90
7622;DHT22;3852;52.284;8.032;2022-08-19T09:51:12;24.50;99.90
7622;DHT22;3852;52.284;8.032;2022-08-19T09:53:43;24.50;99.90
7622;DHT22;3852;52.284;8.032;2022-08-19T09:56:10;24.50;99.90
7622;DHT22;3852;52.284;8.032;2022-08-19T09:58:37;24.50;99.90
7622;DHT22;3852;52.284;8.032;2022-08-19T10:01:04;24.70;99.90
7622;DHT22;3852;52.284;8.032;2022-08-19T10:03:32;24.80;99.90
7622;DHT22;3852;52.284;8.032;2022-08-19T10:06:01;24.90;99.90
7622;DHT22;3852;52.284;8.032;2022-08-19T10:08:33;24.90;99.90
7622;DHT22;3852;52.284;8.032;2022-08-19T10:11:01;24.90;99.90
7622;DHT22;3852;52.284;8.032;2022-08-19T10:13:30;24.90;99.90
7622;DHT22;3852;52.284;8.032;2022-08-19T10:16:11;25.00;99.90
7622;DHT22;3852;52.284;8.032;2022-08-19T10:18:48;25.00;99.90
7622;DHT22;3852;52.284;8.032;2022-08-19T10:21:21;25.00;99.90
7622;DHT22;3852;52.284;8.032;2022-08-19T10:23:50;25.00;99.90
7622;DHT22;3852;52.284;8.032;2022-08-19T10:26:21;24.90;99.90
7622;DHT22;3852;52.284;8.032;2022-08-19T10:28:51;25.10;99.90
7622;DHT22;3852;52.284;8.032;2022-08-19T10:31:23;25.30;99.90
7622;DHT22;3852;52.284;8.032;2022-08-19T10:33:51;25.40;99.90
7622;DHT22;3852;52.284;8.032;2022-08-19T10:36:30;25.40;99.90
7622;DHT22;3852;52.284;8.032;2022-08-19T10:39:01;25.50;99.90
7622;DHT22;3852;52.284;8.032;2022-08-19T10:41:33;25.60;99.90
7622;DHT22;3852;52.284;8.032;2022-08-19T10:44:04;25.60;99.90
7622;DHT22;3852;52.284;8.032;2022-08-19T10:46:35;25.70;99.90
7622;DHT22;3852;52.284;8.032;2022-08-19T10:49:05;25.60;99.90
7622;DHT22;3852;52.284;8.032;2022-08-19T10:51:31;25.60;99.90
7622;DHT22;3852;52.284;8.032;2022-08-19T10:54:16;25.60;99.90
7622;DHT22;3852;52.284;8.032;2022-08-19T10:56:43;25.80;99.90
7622;DHT22;3852;52.284;8.032;2022-08-19T10:59:29;25.80;99.90
7622;DHT22;3852;52.284;8.032;2022-08-19T11:01:59;25.90;99.90
7622;DHT22;3852;52.284;8.032;2022-08-19T11:04:26;26.00;99.90
7622;DHT22;3852;52.284;8.032;2022-08-19T11:06:52;25.90;99.90
7622;DHT22;3852;52.284;8.032;2022-08-19T11:09:23;25.90;99.90
7622;DHT22;3852;52.284;8.032;2022-08-19T11:11:51;26.00;99.90
7622;DHT22;3852;52.284;8.032;2022-08-19T11:14:20;25.80;99.90
7622;DHT22;3852;52.284;8.032;2022-08-19T11:16:47;25.80;99.90
7622;DHT22;3852;52.284;8.032;2022-08-19T11:19:15;25.90;99.90
7622;DHT22;3852;52.284;8.032;2022-08-19T11:21:45;26.10;99.90
7622;DHT22;3852;52.284;8.032;2022-08-19T11:24:21;26.10;99.90
7622;DHT22;3852;52.284;8.032;2022-08-19T11:26:50;26.30;99.90
7622;DHT22;3852;52.284;8.032;2022-08-19T11:29:19;26.50;99.90
7622;DHT22;3852;52.284;8.032;2022-08-19T11:31:49;26.60;99.90
7622;DHT22;3852;52.284;8.032;2022-08-19T11:34:19;26.90;99.90
7622;DHT22;3852;52.284;8.032;2022-08-19T11:36:47;27.10;99.90
7622;DHT22;3852;52.284;8.032;2022-08-19T11:39:17;27.20;99.90
7622;DHT22;3852;52.284;8.032;2022-08-19T11:41:44;27.20;99.90
7622;DHT22;3852;52.284;8.032;2022-08-19T11:44:10;27.00;99.90
7622;DHT22;3852;52.284;8.032;2022-08-19T11:46:41;27.00;99.90
7622;DHT22;3852;52.284;8.032;2022-08-19T11:49:12;27.10;99.90
7622;DHT22;3852;52.284;8.032;2022-08-19T11:51:39;27.00;99.90
7622;DHT22;3852;52.284;8.032;2022-08-19T11:54:08;27.30;99.90
7622;DHT22;3852;52.284;8.032;2022-08-19T11:56:37;27.50;99.90
7622;DHT22;3852;52.284;8.032;2022-08-19T11:59:03;27.50;99.90
7622;DHT22;3852;52.284;8.032;2022-08-19T12:01:29;27.40;99.90
7622;DHT22;3852;52.284;8.032;2022-08-19T12:03:57;27.40;99.90
7622;DHT22;3852;52.284;8.032;2022-08-19T12:06:27;27.30;99.90
7622;DHT22;3852;52.284;8.032;2022-08-19T12:09:00;27.20;99.90
7622;DHT22;3852;52.284;8.032;2022-08-19T12:11:28;27.10;99.90
7622;DHT22;3852;52.284;8.032;2022-08-19T12:13:54;26.90;99.90
7622;DHT22;3852;52.284;8.032;2022-08-19T12:16:25;27.00;99.90
7622;DHT22;3852;52.284;8.032;2022-08-19T12:18:53;27.30;99.90
7622;DHT22;3852;52.284;8.032;2022-08-19T12:21:23;27.50;99.90
7622;DHT22;3852;52.284;8.032;2022-08-19T12:23:53;27.40;99.90
7622;DHT22;3852;52.284;8.032;2022-08-19T12:26:20;27.40;99.90
7622;DHT22;3852;52.284;8.032;2022-08-19T12:28:46;27.40;99.90
7622;DHT22;3852;52.284;8.032;2022-08-19T12:31:13;27.40;99.90
7622;DHT22;3852;52.284;8.032;2022-08-19T12:33:41;27.40;99.90
7622;DHT22;3852;52.284;8.032;2022-08-19T12:36:10;27.50;99.90
7622;DHT22;3852;52.284;8.032;2022-08-19T12:38:38;27.60;99.90
7622;DHT22;3852;52.284;8.032;2022-08-19T12:41:09;27.50;99.90
7622;DHT22;3852;52.284;8.032;2022-08-19T12:43:37;27.50;99.90
7622;DHT22;3852;52.284;8.032;2022-08-19T12:46:04;27.80;99.90
7622;DHT22;3852;52.284;8.032;2022-08-19T12:48:32;27.80;99.90
7622;DHT22;3852;52.284;8.032;2022-08-19T12:51:09;28.10;99.90
7622;DHT22;3852;52.284;8.032;2022-08-19T12:53:37;28.30;99.90
7622;DHT22;3852;52.284;8.032;2022-08-19T12:56:04;28.30;99.90
7622;DHT22;3852;52.284;8.032;2022-08-19T12:58:30;28.20;99.90
7622;DHT22;3852;52.284;8.032;2022-08-19T13:00:57;28.10;99.90
7622;DHT22;3852;52.284;8.032;2022-08-19T13:03:23;28.40;99.90
7622;DHT22;3852;52.284;8.032;2022-08-19T13:05:54;28.50;99.90
7622;DHT22;3852;52.284;8.032;2022-08-19T13:08:20;28.10;99.90
7622;DHT22;3852;52.284;8.032;2022-08-19T13:10:46;27.90;99.90
7622;DHT22;3852;52.284;8.032;2022-08-19T13:13:12;27.70;99.90
7622;DHT22;3852;52.284;8.032;2022-08-19T13:15:40;27.80;99.90
7622;DHT22;3852;52.284;8.032;2022-08-19T13:18:08;27.80;99.90
7622;DHT22;3852;52.284;8.032;2022-08-19T13:20:37;27.80;99.90
7622;DHT22;3852;52.284;8.032;2022-08-19T13:23:04;27.70;99.90
7622;DHT22;3852;52.284;8.032;2022-08-19T13:25:30;27.90;99.90
7622;DHT22;3852;52.284;8.032;2022-08-19T13:27:56;28.10;99.90
7622;DHT22;3852;52.284;8.032;2022-08-19T13:30:22;28.20;99.90
7622;DHT22;3852;52.284;8.032;2022-08-19T13:33:08;28.30;99.90
7622;DHT22;3852;52.284;8.032;2022-08-19T13:35:38;28.30;99.90
7622;DHT22;3852;52.284;8.032;2022-08-19T13:38:06;28.40;99.90
7622;DHT22;3852;52.284;8.032;2022-08-19T13:40:33;28.50;99.90
7622;DHT22;3852;52.284;8.032;2022-08-19T13:43:00;28.60;99.90
7622;DHT22;3852;52.284;8.032;2022-08-19T13:45:28;28.70;99.90
7622;DHT22;3852;52.284;8.032;2022-08-19T13:47:56;28.80;99.90
7622;DHT22;3852;52.284;8.032;2022-08-19T13:50:28;28.70;99.90
7622;DHT22;3852;52.284;8.032;2022-08-19T13:52:56;28.70;99.90
7622;DHT22;3852;52.284;8.032;2022-08-19T13:55:24;28.60;99.90
7622;DHT22;3852;52.284;8.032;2022-08-19T13:57:55;28.10;99.90
7622;DHT22;3852;52.284;8.032;2022-08-19T14:00:23;27.80;99.90
7622;DHT22;3852;52.284;8.032;2022-08-19T14:02:53;27.60;99.90
7622;DHT22;3852;52.284;8.032;2022-08-19T14:05:21;27.60;99.90
7622;DHT22;3852;52.284;8.032;2022-08-19T14:07:47;27.60;99.90
7622;DHT22;3852;52.284;8.032;2022-08-19T14:10:13;27.50;99.90
7622;DHT22;3852;52.284;8.032;2022-08-19T14:12:40;27.40;99.90
7622;DHT22;3852;52.284;8.032;2022-08-19T14:15:08;27.50;99.90
7622;DHT22;3852;52.284;8.032;2022-08-19T14:17:38;27.70;99.90
7622;DHT22;3852;52.284;8.032;2022-08-19T14:20:05;27.70;99.90
7622;DHT22;3852;52.284;8.032;2022-08-19T14:22:35;27.60;99.90
7622;DHT22;3852;52.284;8.032;2022-08-19T14:25:03;27.50;99.90
7622;DHT22;3852;52.284;8.032;2022-08-19T14:27:35;27.50;99.90
7622;DHT22;3852;52.284;8.032;2022-08-19T14:30:07;27.60;99.90
7622;DHT22;3852;52.284;8.032;2022-08-19T14:32:35;27.60;99.90
7622;DHT22;3852;52.284;8.032;2022-08-19T14:35:05;27.50;99.90
7622;DHT22;3852;52.284;8.032;2022-08-19T14:37:33;27.60;99.90
7622;DHT22;3852;52.284;8.032;2022-08-19T14:39:59;27.70;99.90
7622;DHT22;3852;52.284;8.032;2022-08-19T14:42:25;27.60;99.90
7622;DHT22;3852;52.284;8.032;2022-08-19T14:44:51;27.40;99.90
7622;DHT22;3852;52.284;8.032;2022-08-19T14:47:17;27.40;99.90
7622;DHT22;3852;52.284;8.032;2022-08-19T14:49:42;27.40;99.90
7622;DHT22;3852;52.284;8.032;2022-08-19T14:52:09;27.40;99.90
7622;DHT22;3852;52.284;8.032;2022-08-19T14:54:35;27.30;99.90
7622;DHT22;3852;52.284;8.032;2022-08-19T14:57:00;27.40;99.90
7622;DHT22;3852;52.284;8.032;2022-08-19T14:59:26;27.30;99.90
7622;DHT22;3852;52.284;8.032;2022-08-19T15:01:52;27.20;99.90
7622;DHT22;3852;52.284;8.032;2022-08-19T15:04:18;27.20;99.90
7622;DHT22;3852;52.284;8.032;2022-08-19T15:06:44;27.20;99.90
7622;DHT22;3852;52.284;8.032;2022-08-19T15:09:10;27.20;99.90
7622;DHT22;3852;52.284;8.032;2022-08-19T15:11:36;27.10;99.90
7622;DHT22;3852;52.284;8.032;2022-08-19T15:14:02;27.10;99.90
7622;DHT22;3852;52.284;8.032;2022-08-19T15:16:30;27.00;99.90
7622;DHT22;3852;52.284;8.032;2022-08-19T15:18:58;27.00;99.90
7622;DHT22;3852;52.284;8.032;2022-08-19T15:21:25;27.00;99.90
7622;DHT22;3852;52.284;8.032;2022-08-19T15:23:52;27.00;99.90
7622;DHT22;3852;52.284;8.032;2022-08-19T15:26:19;26.90;99.90
7622;DHT22;3852;52.284;8.032;2022-08-19T15:28:45;26.80;99.90
7622;DHT22;3852;52.284;8.032;2022-08-19T15:31:15;26.80;99.90
7622;DHT22;3852;52.284;8.032;2022-08-19T15:33:43;26.90;99.90
7622;DHT22;3852;52.284;8.032;2022-08-19T15:36:10;26.90;99.90
7622;DHT22;3852;52.284;8.032;2022-08-19T15:38:38;26.80;99.90
7622;DHT22;3852;52.284;8.032;2022-08-19T15:41:19;26.80;99.90
7622;DHT22;3852;52.284;8.032;2022-08-19T15:43:55;26.70;99.90
7622;DHT22;3852;52.284;8.032;2022-08-19T15:46:30;26.70;99.90
7622;DHT22;3852;52.284;8.032;2022-08-19T15:48:59;26.80;99.90
7622;DHT22;3852;52.284;8.032;2022-08-19T15:51:29;26.70;99.90
7622;DHT22;3852;52.284;8.032;2022-08-19T15:53:57;26.70;99.90
7622;DHT22;3852;52.284;8.032;2022-08-19T15:56:23;26.60;99.90
7622;DHT22;3852;52.284;8.032;2022-08-19T15:58:51;26.60;99.90
7622;DHT22;3852;52.284;8.032;2022-08-19T16:01:36;26.50;99.90
7622;DHT22;3852;52.284;8.032;2022-08-19T16:04:20;26.40;99.90
7622;DHT22;3852;52.284;8.032;2022-08-19T16:07:05;26.40;99.90
7622;DHT22;3852;52.284;8.032;2022-08-19T16:09:32;26.40;99.90
7622;DHT22;3852;52.284;8.032;2022-08-19T16:12:01;26.40;99.90
7622;DHT22;3852;52.284;8.032;2022-08-19T16:14:32;26.40;99.90
7622;DHT22;3852;52.284;8.032;2022-08-19T16:17:00;26.30;99.90
7622;DHT22;3852;52.284;8.032;2022-08-19T16:19:26;26.20;99.90
7622;DHT22;3852;52.284;8.032;2022-08-19T16:21:54;26.20;99.90
7622;DHT22;3852;52.284;8.032;2022-08-19T16:24:23;26.10;99.90